createdAt,value
2022-11-28T00:02:11.397Z,90.43
2022-11-28T00:06:05.341Z,90.38
2022-11-28T00:09:58.406Z,90.52
2022-11-28T00:13:50.809Z,90.72
2022-11-28T00:17:43.648Z,91.09
2022-11-28T00:21:36.434Z,90.34
2022-11-28T00:25:28.846Z,88.93
2022-11-28T00:29:21.456Z,88.98
2022-11-28T00:33:14.096Z,89.49
2022-11-28T00:37:06.648Z,90.09
2022-11-28T00:41:05.094Z,90.53
2022-11-28T00:44:57.802Z,90.66
2022-11-28T00:48:51.347Z,90.49
2022-11-28T00:52:44.129Z,90.74
2022-11-28T00:56:40.175Z,90.80
2022-11-28T01:00:33.087Z,90.81
2022-11-28T01:04:27.932Z,90.56
2022-11-28T01:08:20.625Z,90.69
2022-11-28T01:12:13.254Z,90.14
2022-11-28T01:16:06.207Z,90.29
2022-11-28T01:19:58.587Z,90.38
2022-11-28T01:23:51.460Z,90.32
2022-11-28T01:27:44.036Z,90.09
2022-11-28T01:31:36.953Z,90.63
2022-11-28T01:35:29.698Z,90.47
2022-11-28T01:39:22.328Z,90.23
2022-11-28T01:43:14.926Z,90.10
2022-11-28T01:47:07.896Z,90.54
2022-11-28T01:51:05.040Z,90.60
2022-11-28T01:55:01.386Z,90.48
2022-11-28T01:59:02.144Z,89.17
2022-11-28T02:03:09.415Z,88.62
2022-11-28T02:07:01.941Z,88.41
2022-11-28T02:11:27.887Z,87.65
2022-11-28T02:15:59.010Z,86.34
2022-11-28T02:20:40.141Z,85.89
2022-11-28T02:24:52.036Z,86.77
2022-11-28T02:29:18.886Z,88.33
2022-11-28T02:33:32.457Z,87.41
2022-11-28T02:38:13.214Z,84.31
2022-11-28T02:42:12.522Z,83.85
2022-11-28T02:46:16.954Z,84.45
2022-11-28T02:50:21.592Z,87.15
2022-11-28T02:54:17.276Z,87.79
2022-11-28T02:58:11.853Z,88.49
2022-11-28T03:02:13.361Z,87.63
2022-11-28T03:06:36.644Z,87.64
2022-11-28T03:10:59.306Z,87.06
2022-11-28T03:15:04.595Z,87.50
2022-11-28T03:19:10.982Z,87.49
2022-11-28T03:23:15.956Z,87.44
2022-11-28T03:27:14.696Z,88.23
2022-11-28T03:31:12.620Z,89.01
2022-11-28T03:35:18.221Z,88.80
2022-11-28T03:39:18.325Z,89.48
2022-11-28T03:43:17.416Z,89.89
2022-11-28T03:47:10.419Z,89.14
2022-11-28T03:51:08.798Z,87.76
2022-11-28T03:55:07.858Z,87.82
2022-11-28T03:59:07.748Z,87.08
2022-11-28T04:03:26.880Z,87.69
2022-11-28T04:07:34.614Z,87.66
2022-11-28T04:11:39.041Z,87.69
2022-11-28T04:15:41.657Z,87.71
2022-11-28T04:19:49.174Z,87.36
2022-11-28T04:23:44.828Z,87.90
2022-11-28T04:27:44.101Z,87.61
2022-11-28T04:31:39.724Z,87.93
2022-11-28T04:35:36.327Z,87.71
2022-11-28T04:39:32.971Z,87.02
2022-11-28T04:43:33.748Z,86.85
2022-11-28T04:47:26.867Z,87.12
2022-11-28T04:51:54.565Z,87.11
2022-11-28T04:55:53.381Z,86.98
2022-11-28T04:59:47.995Z,87.76
2022-11-28T05:03:42.775Z,87.89
2022-11-28T05:07:36.571Z,88.04
2022-11-28T05:11:32.437Z,87.95
2022-11-28T05:15:25.037Z,87.97
2022-11-28T05:19:17.497Z,88.20
2022-11-28T05:23:10.292Z,88.05
2022-11-28T05:27:03.104Z,87.69
2022-11-28T05:31:00.262Z,87.92
2022-11-28T05:34:52.887Z,87.52
2022-11-28T05:38:45.809Z,87.01
2022-11-28T05:42:38.351Z,87.07
2022-11-28T05:46:30.999Z,86.12
2022-11-28T05:50:23.576Z,86.86
2022-11-28T05:54:16.102Z,87.19
2022-11-28T05:58:08.861Z,87.64
2022-11-28T06:02:02.163Z,87.21
2022-11-28T06:05:54.834Z,87.44
2022-11-28T06:09:47.495Z,87.99
2022-11-28T06:13:40.377Z,86.33
2022-11-28T06:17:34.183Z,86.67
2022-11-28T06:21:29.130Z,85.70
2022-11-28T06:25:22.182Z,85.20
2022-11-28T06:29:15.050Z,85.13
2022-11-28T06:33:07.862Z,85.41
2022-11-28T06:37:00.764Z,85.69
2022-11-28T06:40:59.737Z,86.49
2022-11-28T06:44:52.633Z,86.03
2022-11-28T06:48:46.473Z,84.50
2022-11-28T06:52:38.965Z,85.12
2022-11-28T06:56:31.375Z,85.64
2022-11-28T07:00:23.970Z,86.11
2022-11-28T07:04:16.450Z,86.16
2022-11-28T07:08:08.919Z,85.75
2022-11-28T07:12:01.566Z,85.71
2022-11-28T07:15:54.132Z,85.83
2022-11-28T07:19:51.871Z,85.96
2022-11-28T07:23:47.601Z,85.67
2022-11-28T07:27:40.203Z,86.26
2022-11-28T07:31:34.022Z,85.83
2022-11-28T07:35:26.473Z,84.71
2022-11-28T07:39:19.274Z,84.83
2022-11-28T07:43:11.860Z,85.33
2022-11-28T07:47:04.798Z,85.02
2022-11-28T07:50:57.316Z,85.42
2022-11-28T07:54:50.478Z,85.07
2022-11-28T07:58:44.754Z,86.13
2022-11-28T08:02:39.467Z,85.96
2022-11-28T08:06:32.536Z,86.16
2022-11-28T08:10:25.182Z,86.49
2022-11-28T08:14:17.930Z,86.10
2022-11-28T08:18:10.602Z,85.61
2022-11-28T08:22:03.757Z,85.77
2022-11-28T08:25:56.257Z,85.18
2022-11-28T08:29:52.211Z,85.38
2022-11-28T08:33:48.620Z,84.68
2022-11-28T08:37:41.365Z,80.57
2022-11-28T08:41:36.384Z,80.05
2022-11-28T08:45:29.077Z,80.72
2022-11-28T08:49:21.756Z,80.40
2022-11-28T08:53:18.615Z,77.72
2022-11-28T08:57:11.569Z,78.59
2022-11-28T09:01:05.327Z,77.84
2022-11-28T09:04:57.966Z,77.33
2022-11-28T09:08:51.702Z,77.52
2022-11-28T09:12:44.530Z,78.24
2022-11-28T09:16:39.593Z,78.49
2022-11-28T09:20:33.178Z,77.36
2022-11-28T09:24:25.793Z,75.90
2022-11-28T09:28:18.299Z,75.68
2022-11-28T09:32:11.008Z,75.66
2022-11-28T09:36:08.901Z,75.66
2022-11-28T09:40:16.898Z,74.59
2022-11-28T09:44:33.282Z,74.87
2022-11-28T09:48:28.871Z,73.67
2022-11-28T09:52:48.601Z,73.53
2022-11-28T09:56:41.613Z,74.55
2022-11-28T10:00:42.395Z,74.43
2022-11-28T10:04:43.106Z,74.17
2022-11-28T10:08:44.421Z,73.86
2022-11-28T10:12:52.029Z,73.24
2022-11-28T10:17:26.592Z,71.99
2022-11-28T10:21:35.394Z,73.22
2022-11-28T10:25:44.258Z,72.74
2022-11-28T10:29:47.374Z,72.34
2022-11-28T10:33:42.309Z,72.62
2022-11-28T10:37:37.272Z,72.84
2022-11-28T10:41:37.358Z,71.34
2022-11-28T10:45:52.815Z,71.78
2022-11-28T10:50:10.835Z,71.64
2022-11-28T10:54:25.745Z,72.91
2022-11-28T10:58:29.694Z,72.04
2022-11-28T11:02:32.362Z,72.32
2022-11-28T11:06:40.918Z,71.22
2022-11-28T11:10:39.977Z,71.44
2022-11-28T11:14:43.274Z,70.45
2022-11-28T11:18:50.742Z,71.37
2022-11-28T11:22:58.523Z,72.76
2022-11-28T11:26:51.373Z,71.54
2022-11-28T11:30:46.200Z,71.43
2022-11-28T11:34:45.188Z,70.89
2022-11-28T11:38:40.275Z,71.71
2022-11-28T11:42:33.582Z,72.75
2022-11-28T11:46:26.278Z,72.89
2022-11-28T11:50:21.547Z,73.00
2022-11-28T11:54:13.991Z,73.00
2022-11-28T11:58:10.257Z,72.97
2022-11-28T12:02:16.956Z,72.82
2022-11-28T12:06:20.364Z,72.08
2022-11-28T12:10:18.354Z,73.60
2022-11-28T12:14:35.340Z,73.73
2022-11-28T12:18:35.082Z,73.62
2022-11-28T12:22:43.076Z,72.41
2022-11-28T12:26:40.652Z,72.77
2022-11-28T12:30:52.249Z,72.90
2022-11-28T12:34:47.930Z,72.83
2022-11-28T12:38:57.464Z,72.15
2022-11-28T12:43:24.629Z,72.52
2022-11-28T12:47:51.255Z,72.83
2022-11-28T12:52:05.350Z,73.00
2022-11-28T12:56:41.740Z,72.71
2022-11-28T13:00:38.960Z,73.16
2022-11-28T13:05:05.428Z,74.40
2022-11-28T13:09:16.873Z,73.87
2022-11-28T13:13:23.121Z,73.91
2022-11-28T13:17:22.068Z,73.73
2022-11-28T13:21:14.770Z,73.29
2022-11-28T13:25:36.134Z,74.12
2022-11-28T13:29:45.909Z,73.16
2022-11-28T13:33:55.221Z,74.30
2022-11-28T13:43:03.349Z,74.56
2022-11-28T13:46:56.833Z,75.23
2022-11-28T13:51:30.152Z,74.34
2022-11-28T13:55:47.647Z,74.87
2022-11-28T13:59:40.341Z,74.42
2022-11-28T14:03:45.500Z,74.66
2022-11-28T14:07:38.095Z,75.01
2022-11-28T14:12:07.976Z,75.57
2022-11-28T14:16:07.747Z,75.34
2022-11-28T14:20:25.434Z,75.45
2022-11-28T14:24:30.024Z,75.95
2022-11-28T14:28:34.078Z,76.34
2022-11-28T14:32:36.889Z,76.71
2022-11-28T14:36:39.473Z,76.23
2022-11-28T14:40:57.121Z,77.03
2022-11-28T14:44:56.763Z,77.45
2022-11-28T14:49:17.819Z,76.49
2022-11-28T14:53:35.600Z,77.79
2022-11-28T14:57:32.819Z,77.92
2022-11-28T15:01:38.519Z,77.33
2022-11-28T15:05:44.988Z,77.23
2022-11-28T15:09:50.494Z,77.77
2022-11-28T15:14:01.576Z,78.40
2022-11-28T15:17:54.542Z,78.79
2022-11-28T15:21:49.337Z,78.43
2022-11-28T15:25:52.937Z,78.49
2022-11-28T15:30:00.059Z,78.98
2022-11-28T15:33:52.576Z,79.42
2022-11-28T15:37:50.856Z,80.41
2022-11-28T15:41:46.179Z,80.66
2022-11-28T15:45:42.456Z,81.02
2022-11-28T15:49:36.098Z,80.87
2022-11-28T15:53:28.804Z,81.24
2022-11-28T15:57:23.891Z,81.10
2022-11-28T16:01:26.821Z,80.85
2022-11-28T16:05:22.177Z,80.35
2022-11-28T16:09:17.874Z,80.20
2022-11-28T16:13:14.285Z,79.97
2022-11-28T16:17:15.787Z,80.21
2022-11-28T16:21:13.083Z,80.15
2022-11-28T16:25:26.084Z,79.86
2022-11-28T16:29:18.580Z,79.23
2022-11-28T16:33:37.067Z,79.59
2022-11-28T16:37:31.482Z,78.68
2022-11-28T16:41:26.536Z,78.42
2022-11-28T16:45:24.728Z,79.04
2022-11-28T16:49:36.364Z,78.93
2022-11-28T16:53:51.136Z,79.30
2022-11-28T16:57:47.979Z,79.43
2022-11-28T17:01:46.301Z,78.00
2022-11-28T17:05:39.413Z,78.27
2022-11-28T17:09:34.137Z,78.46
2022-11-28T17:13:30.471Z,78.58
2022-11-28T17:17:24.080Z,78.18
2022-11-28T17:21:22.587Z,78.32
2022-11-28T17:25:17.937Z,78.25
2022-11-28T17:29:12.739Z,77.89
2022-11-28T17:33:06.411Z,78.52
2022-11-28T17:37:01.584Z,78.65
2022-11-28T17:40:54.793Z,78.72
2022-11-28T17:44:47.830Z,79.97
2022-11-28T17:48:42.585Z,80.11
2022-11-28T17:52:36.109Z,80.69
2022-11-28T17:56:29.214Z,80.82
2022-11-28T18:00:22.586Z,81.43
2022-11-28T18:04:16.223Z,81.26
2022-11-28T18:08:10.060Z,81.91
2022-11-28T18:12:03.317Z,82.45
2022-11-28T18:15:57.962Z,82.40
2022-11-28T18:20:02.365Z,82.55
2022-11-28T18:23:55.736Z,82.09
2022-11-28T18:27:48.830Z,82.87
2022-11-28T18:31:43.393Z,83.01
2022-11-28T18:35:36.546Z,82.90
2022-11-28T18:39:29.868Z,82.40
2022-11-28T18:43:23.276Z,82.00
2022-11-28T18:47:16.105Z,82.96
2022-11-28T18:51:12.401Z,83.13
2022-11-28T18:55:05.969Z,83.26
2022-11-28T18:58:59.476Z,83.23
2022-11-28T19:02:54.673Z,82.77
2022-11-28T19:06:49.153Z,82.66
2022-11-28T19:10:42.279Z,81.85
2022-11-28T19:14:35.413Z,81.79
2022-11-28T19:18:28.724Z,81.35
2022-11-28T19:22:23.434Z,81.64
2022-11-28T19:26:19.865Z,81.92
2022-11-28T19:30:13.609Z,81.58
2022-11-28T19:34:18.630Z,81.97
2022-11-28T19:38:11.854Z,82.01
2022-11-28T19:42:05.509Z,82.68
2022-11-28T19:45:58.768Z,83.08
2022-11-28T19:49:53.740Z,84.24
2022-11-28T19:53:46.899Z,84.98
2022-11-28T19:57:40.118Z,85.41
2022-11-28T20:01:32.940Z,86.09
2022-11-28T20:05:25.969Z,85.46
2022-11-28T20:09:19.357Z,85.44
2022-11-28T20:13:12.508Z,84.98
2022-11-28T20:17:05.350Z,85.35
2022-11-28T20:21:09.166Z,85.35
2022-11-28T20:25:01.932Z,85.49
2022-11-28T20:28:56.309Z,85.02
2022-11-28T20:32:49.443Z,85.18
2022-11-28T20:36:42.609Z,85.00
2022-11-28T20:40:35.699Z,84.84
2022-11-28T20:44:28.357Z,85.54
2022-11-28T20:48:21.467Z,85.76
2022-11-28T20:52:15.609Z,85.31
2022-11-28T20:56:17.695Z,85.86
2022-11-28T21:00:11.451Z,86.25
2022-11-28T21:04:06.890Z,86.27
2022-11-28T21:08:00.200Z,86.32
2022-11-28T21:11:58.539Z,86.60
2022-11-28T21:15:53.874Z,86.69
2022-11-28T21:19:46.926Z,86.53
2022-11-28T21:23:40.006Z,86.25
2022-11-28T21:27:32.409Z,86.36
2022-11-28T21:31:28.865Z,86.16
2022-11-28T21:35:21.581Z,86.27
2022-11-28T21:39:16.835Z,86.94
2022-11-28T21:43:09.412Z,86.68
2022-11-28T21:47:03.604Z,86.55
2022-11-28T21:50:56.386Z,86.67
2022-11-28T21:54:48.957Z,86.82
2022-11-28T21:58:41.505Z,86.93
2022-11-28T22:02:34.437Z,86.92
2022-11-28T22:06:26.993Z,86.59
2022-11-28T22:10:19.567Z,86.18
2022-11-28T22:14:11.845Z,86.84
2022-11-28T22:18:04.638Z,86.45
2022-11-28T22:21:57.186Z,87.33
2022-11-28T22:25:52.373Z,87.05
2022-11-28T22:29:45.143Z,86.86
2022-11-28T22:33:38.071Z,86.45
2022-11-28T22:37:30.510Z,87.00
2022-11-28T22:41:29.025Z,87.35
2022-11-28T22:45:22.739Z,87.30
2022-11-28T22:49:16.007Z,87.18
2022-11-28T22:53:08.676Z,87.32
2022-11-28T22:57:01.277Z,86.82
2022-11-28T23:00:53.985Z,87.10
2022-11-28T23:04:46.685Z,86.91
2022-11-28T23:08:39.412Z,86.89
2022-11-28T23:12:32.131Z,87.28
2022-11-28T23:16:33.156Z,87.39
2022-11-28T23:20:25.954Z,86.96
2022-11-28T23:24:21.876Z,86.84
2022-11-28T23:28:14.376Z,87.20
2022-11-28T23:32:07.167Z,87.27
2022-11-28T23:35:59.678Z,87.51
2022-11-28T23:39:52.321Z,87.86
2022-11-28T23:43:45.505Z,87.80
2022-11-28T23:47:37.891Z,87.55
2022-11-28T23:51:30.550Z,87.40
2022-11-28T23:55:22.775Z,87.32
2022-11-28T23:59:15.307Z,87.51
